sensor_id;sensor_type;location;lat;lon;timestamp;pressure;altitude;pressure_sealevel;temperature;humidity
34961;BME280;30789;52.030;7.110;2023-05-08T00:02:30;101306.53;;;14.50;74.71
34961;BME280;30789;52.030;7.110;2023-05-08T00:04:57;101304.94;;;14.49;74.29
34961;BME280;30789;52.030;7.110;2023-05-08T00:07:23;101303.75;;;14.46;74.55
34961;BME280;30789;52.030;7.110;2023-05-08T00:09:50;101307.31;;;14.50;74.15
34961;BME280;30789;52.030;7.110;2023-05-08T00:12:16;101300.19;;;14.46;74.50
34961;BME280;30789;52.030;7.110;2023-05-08T00:14:43;101302.19;;;14.45;73.86
34961;BME280;30789;52.030;7.110;2023-05-08T00:17:09;101300.97;;;14.29;74.40
34961;BME280;30789;52.030;7.110;2023-05-08T00:19:38;101304.13;;;14.27;75.10
34961;BME280;30789;52.030;7.110;2023-05-08T00:22:04;101302.16;;;14.28;74.56
34961;BME280;30789;52.030;7.110;2023-05-08T00:24:30;101305.72;;;14.25;74.65
34961;BME280;30789;52.030;7.110;2023-05-08T00:26:57;101300.97;;;14.29;74.98
34961;BME280;30789;52.030;7.110;2023-05-08T00:29:23;101306.53;;;14.25;75.06
34961;BME280;30789;52.030;7.110;2023-05-08T00:31:50;101302.16;;;14.31;74.67
34961;BME280;30789;52.030;7.110;2023-05-08T00:34:16;101302.91;;;14.21;75.92
34961;BME280;30789;52.030;7.110;2023-05-08T00:36:44;101301.72;;;14.12;74.90
34961;BME280;30789;52.030;7.110;2023-05-08T00:39:10;101300.53;;;14.23;73.91
34961;BME280;30789;52.030;7.110;2023-05-08T00:41:37;101307.28;;;14.12;74.42
34961;BME280;30789;52.030;7.110;2023-05-08T00:44:04;101307.28;;;14.12;74.82
34961;BME280;30789;52.030;7.110;2023-05-08T00:46:30;101303.28;;;14.02;75.24
34961;BME280;30789;52.030;7.110;2023-05-08T00:48:57;101312.00;;;14.01;74.66
34961;BME280;30789;52.030;7.110;2023-05-08T00:51:23;101315.19;;;14.10;73.79
34961;BME280;30789;52.030;7.110;2023-05-08T00:53:52;101307.22;;;14.05;72.91
34961;BME280;30789;52.030;7.110;2023-05-08T00:56:19;101304.44;;;13.94;73.63
34961;BME280;30789;52.030;7.110;2023-05-08T00:58:47;101308.81;;;13.99;73.03
34961;BME280;30789;52.030;7.110;2023-05-08T01:01:15;101304.84;;;14.00;72.68
34961;BME280;30789;52.030;7.110;2023-05-08T01:03:42;101300.91;;;14.01;72.60
34961;BME280;30789;52.030;7.110;2023-05-08T01:06:09;101297.38;;;14.07;71.99
34961;BME280;30789;52.030;7.110;2023-05-08T01:08:35;101302.03;;;13.89;72.66
34961;BME280;30789;52.030;7.110;2023-05-08T01:11:10;101296.91;;;13.88;72.97
34961;BME280;30789;52.030;7.110;2023-05-08T01:13:48;101300.41;;;13.74;73.73
34961;BME280;30789;52.030;7.110;2023-05-08T01:16:22;101294.91;;;13.85;72.63
34961;BME280;30789;52.030;7.110;2023-05-08T01:18:58;101287.38;;;13.78;73.55
34961;BME280;30789;52.030;7.110;2023-05-08T01:21:31;101291.75;;;13.83;73.04
34961;BME280;30789;52.030;7.110;2023-05-08T01:24:30;101297.31;;;13.90;73.08
34961;BME280;30789;52.030;7.110;2023-05-08T01:30:42;101289.00;;;13.83;72.17
34961;BME280;30789;52.030;7.110;2023-05-08T01:33:19;101295.66;;;13.67;72.67
34961;BME280;30789;52.030;7.110;2023-05-08T01:35:53;101295.66;;;13.71;72.21
34961;BME280;30789;52.030;7.110;2023-05-08T01:38:26;101284.97;;;13.62;71.40
34961;BME280;30789;52.030;7.110;2023-05-08T01:41:01;101292.09;;;13.70;71.07
34961;BME280;30789;52.030;7.110;2023-05-08T01:43:36;101295.66;;;13.67;70.97
34961;BME280;30789;52.030;7.110;2023-05-08T01:46:08;101294.88;;;13.67;70.70
34961;BME280;30789;52.030;7.110;2023-05-08T01:48:43;101299.91;;;13.47;72.37
34961;BME280;30789;52.030;7.110;2023-05-08T01:51:16;101304.25;;;13.41;71.83
34961;BME280;30789;52.030;7.110;2023-05-08T01:53:47;101302.69;;;13.44;71.72
34961;BME280;30789;52.030;7.110;2023-05-08T01:56:18;101295.16;;;13.44;71.77
34961;BME280;30789;52.030;7.110;2023-05-08T01:58:46;101308.22;;;13.47;71.69
34961;BME280;30789;52.030;7.110;2023-05-08T02:01:14;101307.84;;;13.52;70.79
34961;BME280;30789;52.030;7.110;2023-05-08T02:03:45;101304.63;;;13.36;71.30
34961;BME280;30789;52.030;7.110;2023-05-08T02:06:17;101306.25;;;13.48;70.96
34961;BME280;30789;52.030;7.110;2023-05-08T02:08:45;101309.94;;;13.73;69.79
34961;BME280;30789;52.030;7.110;2023-05-08T02:11:13;101305.78;;;13.35;71.31
34961;BME280;30789;52.030;7.110;2023-05-08T02:13:41;101306.97;;;13.31;71.00
34961;BME280;30789;52.030;7.110;2023-05-08T02:16:10;101305.38;;;13.30;71.08
34961;BME280;30789;52.030;7.110;2023-05-08T02:18:39;101300.28;;;13.39;70.82
34961;BME280;30789;52.030;7.110;2023-05-08T02:21:11;101307.00;;;13.38;70.59
34961;BME280;30789;52.030;7.110;2023-05-08T02:23:41;101306.22;;;13.44;70.19
34961;BME280;30789;52.030;7.110;2023-05-08T02:26:09;101308.91;;;13.23;70.81
34961;BME280;30789;52.030;7.110;2023-05-08T02:28:37;101301.75;;;13.19;71.18
34961;BME280;30789;52.030;7.110;2023-05-08T02:31:06;101304.50;;;13.15;71.94
34961;BME280;30789;52.030;7.110;2023-05-08T02:33:33;101299.44;;;13.24;70.68
34961;BME280;30789;52.030;7.110;2023-05-08T02:36:06;101312.75;;;13.05;72.22
34961;BME280;30789;52.030;7.110;2023-05-08T02:38:36;101307.97;;;13.02;72.82
34961;BME280;30789;52.030;7.110;2023-05-08T02:41:04;101312.75;;;13.01;72.48
34961;BME280;30789;52.030;7.110;2023-05-08T02:43:31;101312.28;;;12.99;72.44
34961;BME280;30789;52.030;7.110;2023-05-08T02:46:01;101310.34;;;13.03;72.69
34961;BME280;30789;52.030;7.110;2023-05-08T02:48:37;101315.25;;;13.24;71.13
34961;BME280;30789;52.030;7.110;2023-05-08T02:51:12;101311.63;;;13.16;71.88
34961;BME280;30789;52.030;7.110;2023-05-08T02:53:47;101313.59;;;13.16;71.80
34961;BME280;30789;52.030;7.110;2023-05-08T02:56:20;101298.94;;;13.08;72.30
34961;BME280;30789;52.030;7.110;2023-05-08T02:58:54;101309.16;;;13.01;72.23
34961;BME280;30789;52.030;7.110;2023-05-08T03:01:24;101308.31;;;12.93;72.87
34961;BME280;30789;52.030;7.110;2023-05-08T03:03:58;101305.94;;;12.99;72.30
34961;BME280;30789;52.030;7.110;2023-05-08T03:06:26;101308.78;;;13.02;71.79
34961;BME280;30789;52.030;7.110;2023-05-08T03:08:56;101306.03;;;13.02;72.16
34961;BME280;30789;52.030;7.110;2023-05-08T03:11:31;101302.44;;;13.02;72.56
34961;BME280;30789;52.030;7.110;2023-05-08T03:14:01;101307.22;;;13.05;72.95
34961;BME280;30789;52.030;7.110;2023-05-08T03:16:31;101302.31;;;12.88;73.30
34961;BME280;30789;52.030;7.110;2023-05-08T03:19:04;101299.53;;;12.84;73.44
34961;BME280;30789;52.030;7.110;2023-05-08T03:21:32;101304.25;;;12.77;73.75
34961;BME280;30789;52.030;7.110;2023-05-08T03:24:04;101304.63;;;12.79;73.63
34961;BME280;30789;52.030;7.110;2023-05-08T03:26:32;101299.91;;;12.79;73.79
34961;BME280;30789;52.030;7.110;2023-05-08T03:28:59;101297.25;;;12.97;73.14
34961;BME280;30789;52.030;7.110;2023-05-08T03:31:27;101296.88;;;12.98;72.81
34961;BME280;30789;52.030;7.110;2023-05-08T03:33:55;101303.13;;;12.88;73.00
34961;BME280;30789;52.030;7.110;2023-05-08T03:36:24;101302.66;;;12.79;73.69
34961;BME280;30789;52.030;7.110;2023-05-08T03:38:51;101304.63;;;12.75;73.77
34961;BME280;30789;52.030;7.110;2023-05-08T03:41:19;101303.72;;;12.61;74.49
34961;BME280;30789;52.030;7.110;2023-05-08T03:43:45;101302.97;;;12.67;73.54
34961;BME280;30789;52.030;7.110;2023-05-08T03:46:12;101298.31;;;12.82;73.26
34961;BME280;30789;52.030;7.110;2023-05-08T03:48:40;101301.03;;;12.71;74.33
34961;BME280;30789;52.030;7.110;2023-05-08T03:51:07;101309.28;;;12.64;74.51
34961;BME280;30789;52.030;7.110;2023-05-08T03:53:34;101312.47;;;12.70;74.05
34961;BME280;30789;52.030;7.110;2023-05-08T03:56:01;101303.41;;;12.73;74.33
34961;BME280;30789;52.030;7.110;2023-05-08T03:58:31;101299.09;;;12.75;74.31
34961;BME280;30789;52.030;7.110;2023-05-08T04:01:04;101307.00;;;12.77;73.30
34961;BME280;30789;52.030;7.110;2023-05-08T04:03:43;101307.44;;;12.82;72.80
34961;BME280;30789;52.030;7.110;2023-05-08T04:06:15;101302.31;;;12.84;72.55
34961;BME280;30789;52.030;7.110;2023-05-08T04:08:47;101312.81;;;12.65;73.12
34961;BME280;30789;52.030;7.110;2023-05-08T04:11:25;101308.47;;;12.64;73.51
34961;BME280;30789;52.030;7.110;2023-05-08T04:14:03;101305.41;;;12.72;73.04
34961;BME280;30789;52.030;7.110;2023-05-08T04:16:34;101314.00;;;12.64;73.60
34961;BME280;30789;52.030;7.110;2023-05-08T04:19:06;101317.13;;;12.59;74.21
34961;BME280;30789;52.030;7.110;2023-05-08T04:21:33;101320.63;;;12.52;74.35
34961;BME280;30789;52.030;7.110;2023-05-08T04:24:01;101320.25;;;12.57;74.07
34961;BME280;30789;52.030;7.110;2023-05-08T04:26:28;101311.59;;;12.59;74.23
34961;BME280;30789;52.030;7.110;2023-05-08T04:28:57;101316.75;;;12.64;73.95
34961;BME280;30789;52.030;7.110;2023-05-08T04:31:24;101312.91;;;12.75;73.80
34961;BME280;30789;52.030;7.110;2023-05-08T04:33:53;101320.34;;;12.64;74.04
34961;BME280;30789;52.030;7.110;2023-05-08T04:36:20;101325.78;;;12.54;74.85
34961;BME280;30789;52.030;7.110;2023-05-08T04:38:47;101323.03;;;12.57;74.37
34961;BME280;30789;52.030;7.110;2023-05-08T04:41:14;101322.34;;;12.67;74.38
34961;BME280;30789;52.030;7.110;2023-05-08T04:43:41;101316.03;;;12.70;73.59
34961;BME280;30789;52.030;7.110;2023-05-08T04:46:09;101315.72;;;12.82;73.32
34961;BME280;30789;52.030;7.110;2023-05-08T04:48:35;101324.03;;;12.82;73.66
34961;BME280;30789;52.030;7.110;2023-05-08T04:51:02;101322.88;;;12.87;73.25
34961;BME280;30789;52.030;7.110;2023-05-08T04:53:28;101320.13;;;12.94;72.65
34961;BME280;30789;52.030;7.110;2023-05-08T04:55:55;101321.31;;;12.93;72.24
34961;BME280;30789;52.030;7.110;2023-05-08T04:58:23;101322.00;;;12.76;73.44
34961;BME280;30789;52.030;7.110;2023-05-08T05:00:49;101329.13;;;12.77;73.94
34961;BME280;30789;52.030;7.110;2023-05-08T05:03:17;101335.47;;;12.81;74.00
34961;BME280;30789;52.030;7.110;2023-05-08T05:05:44;101339.88;;;12.89;73.28
34961;BME280;30789;52.030;7.110;2023-05-08T05:08:10;101339.50;;;12.90;72.93
34961;BME280;30789;52.030;7.110;2023-05-08T05:10:37;101340.72;;;12.96;72.58
34961;BME280;30789;52.030;7.110;2023-05-08T05:13:03;101352.25;;;13.02;72.95
34961;BME280;30789;52.030;7.110;2023-05-08T05:15:30;101336.44;;;13.02;73.23
34961;BME280;30789;52.030;7.110;2023-05-08T05:17:56;101344.41;;;13.11;72.39
34961;BME280;30789;52.030;7.110;2023-05-08T05:20:24;101346.44;;;13.17;72.81
34961;BME280;30789;52.030;7.110;2023-05-08T05:22:51;101340.97;;;13.24;72.70
34961;BME280;30789;52.030;7.110;2023-05-08T05:25:17;101349.19;;;13.17;72.55
34961;BME280;30789;52.030;7.110;2023-05-08T05:27:44;101353.91;;;13.10;73.56
34961;BME280;30789;52.030;7.110;2023-05-08T05:30:11;101356.78;;;13.31;71.64
34961;BME280;30789;52.030;7.110;2023-05-08T05:32:37;101356.38;;;13.25;72.93
34961;BME280;30789;52.030;7.110;2023-05-08T05:35:05;101358.31;;;13.21;72.87
34961;BME280;30789;52.030;7.110;2023-05-08T05:37:33;101346.50;;;13.28;72.54
34961;BME280;30789;52.030;7.110;2023-05-08T05:39:59;101346.94;;;13.33;72.42
34961;BME280;30789;52.030;7.110;2023-05-08T05:42:26;101351.31;;;13.38;72.38
34961;BME280;30789;52.030;7.110;2023-05-08T05:44:53;101347.75;;;13.37;71.99
34961;BME280;30789;52.030;7.110;2023-05-08T05:47:20;101336.72;;;13.48;71.88
34961;BME280;30789;52.030;7.110;2023-05-08T05:49:47;101351.38;;;13.55;72.31
34961;BME280;30789;52.030;7.110;2023-05-08T05:52:14;101349.41;;;13.56;72.65
34961;BME280;30789;52.030;7.110;2023-05-08T05:54:42;101351.47;;;13.73;71.65
34961;BME280;30789;52.030;7.110;2023-05-08T05:57:08;101343.94;;;13.70;71.89
34961;BME280;30789;52.030;7.110;2023-05-08T05:59:35;101347.19;;;13.90;71.30
34961;BME280;30789;52.030;7.110;2023-05-08T06:02:01;101350.38;;;13.99;70.43
34961;BME280;30789;52.030;7.110;2023-05-08T06:04:28;101340.53;;;14.12;70.46
34961;BME280;30789;52.030;7.110;2023-05-08T06:06:55;101343.31;;;14.12;70.56
34961;BME280;30789;52.030;7.110;2023-05-08T06:09:22;101339.72;;;14.08;71.10
34961;BME280;30789;52.030;7.110;2023-05-08T06:11:50;101333.81;;;14.23;70.44
34961;BME280;30789;52.030;7.110;2023-05-08T06:14:16;101333.00;;;14.23;70.74
34961;BME280;30789;52.030;7.110;2023-05-08T06:16:43;101342.56;;;14.25;71.02
34961;BME280;30789;52.030;7.110;2023-05-08T06:19:10;101346.50;;;14.21;72.20
34961;BME280;30789;52.030;7.110;2023-05-08T06:21:36;101349.31;;;14.45;70.99
34961;BME280;30789;52.030;7.110;2023-05-08T06:24:04;101349.31;;;14.42;71.49
34961;BME280;30789;52.030;7.110;2023-05-08T06:26:30;101354.88;;;14.52;71.17
34961;BME280;30789;52.030;7.110;2023-05-08T06:28:58;101360.44;;;14.77;70.28
34961;BME280;30789;52.030;7.110;2023-05-08T06:31:25;101360.03;;;14.68;70.46
34961;BME280;30789;52.030;7.110;2023-05-08T06:33:52;101360.44;;;14.70;70.18
34961;BME280;30789;52.030;7.110;2023-05-08T06:36:18;101364.00;;;14.74;71.36
34961;BME280;30789;52.030;7.110;2023-05-08T06:38:44;101359.25;;;14.88;70.76
34961;BME280;30789;52.030;7.110;2023-05-08T06:41:11;101358.84;;;14.93;70.76
34961;BME280;30789;52.030;7.110;2023-05-08T06:43:37;101361.22;;;15.16;70.54
34961;BME280;30789;52.030;7.110;2023-05-08T06:46:05;101361.97;;;15.13;70.60
34961;BME280;30789;52.030;7.110;2023-05-08T06:48:32;101363.59;;;15.03;71.39
34961;BME280;30789;52.030;7.110;2023-05-08T06:50:59;101365.13;;;15.36;70.87
34961;BME280;30789;52.030;7.110;2023-05-08T06:53:26;101364.72;;;15.59;69.63
34961;BME280;30789;52.030;7.110;2023-05-08T06:55:52;101373.41;;;15.61;70.03
34961;BME280;30789;52.030;7.110;2023-05-08T06:58:19;101368.28;;;15.49;70.51
34961;BME280;30789;52.030;7.110;2023-05-08T07:00:45;101371.78;;;15.70;69.38
34961;BME280;30789;52.030;7.110;2023-05-08T07:03:13;101371.78;;;15.74;69.18
34961;BME280;30789;52.030;7.110;2023-05-08T07:05:40;101377.44;;;15.46;70.28
34961;BME280;30789;52.030;7.110;2023-05-08T07:08:06;101383.03;;;15.17;72.00
34961;BME280;30789;52.030;7.110;2023-05-08T07:10:34;101381.41;;;15.27;72.10
34961;BME280;30789;52.030;7.110;2023-05-08T07:13:00;101382.59;;;15.29;72.70
34961;BME280;30789;52.030;7.110;2023-05-08T07:15:27;101381.34;;;15.73;70.97
34961;BME280;30789;52.030;7.110;2023-05-08T07:17:53;101372.94;;;15.83;70.41
34961;BME280;30789;52.030;7.110;2023-05-08T07:20:21;101375.69;;;15.87;70.40
34961;BME280;30789;52.030;7.110;2023-05-08T07:22:48;101366.16;;;15.91;70.16
34961;BME280;30789;52.030;7.110;2023-05-08T07:25:15;101367.81;;;15.78;69.51
34961;BME280;30789;52.030;7.110;2023-05-08T07:27:42;101370.56;;;15.82;70.94
34961;BME280;30789;52.030;7.110;2023-05-08T07:30:09;101365.09;;;15.57;70.71
34961;BME280;30789;52.030;7.110;2023-05-08T07:32:36;101366.59;;;15.79;70.48
34961;BME280;30789;52.030;7.110;2023-05-08T07:35:04;101373.41;;;15.64;70.99
34961;BME280;30789;52.030;7.110;2023-05-08T07:37:34;101371.81;;;15.67;71.91
34961;BME280;30789;52.030;7.110;2023-05-08T07:40:00;101370.81;;;16.15;70.10
34961;BME280;30789;52.030;7.110;2023-05-08T07:42:27;101369.53;;;16.30;69.55
34961;BME280;30789;52.030;7.110;2023-05-08T07:44:54;101377.19;;;16.09;70.32
34961;BME280;30789;52.030;7.110;2023-05-08T07:47:21;101381.38;;;16.45;69.28
34961;BME280;30789;52.030;7.110;2023-05-08T07:49:47;101381.34;;;16.48;70.12
34961;BME280;30789;52.030;7.110;2023-05-08T07:52:14;101371.63;;;16.74;69.49
34961;BME280;30789;52.030;7.110;2023-05-08T07:54:42;101368.63;;;16.98;67.69
34961;BME280;30789;52.030;7.110;2023-05-08T07:57:08;101376.56;;;17.00;68.79
34961;BME280;30789;52.030;7.110;2023-05-08T07:59:35;101369.19;;;16.79;67.92
34961;BME280;30789;52.030;7.110;2023-05-08T08:02:01;101368.41;;;16.79;69.06
34961;BME280;30789;52.030;7.110;2023-05-08T08:04:28;101374.94;;;17.06;68.80
34961;BME280;30789;52.030;7.110;2023-05-08T08:06:54;101375.88;;;17.33;67.84
34961;BME280;30789;52.030;7.110;2023-05-08T08:09:21;101377.97;;;17.63;66.80
34961;BME280;30789;52.030;7.110;2023-05-08T08:11:49;101379.81;;;17.36;67.58
34961;BME280;30789;52.030;7.110;2023-05-08T08:14:15;101379.03;;;17.72;67.42
34961;BME280;30789;52.030;7.110;2023-05-08T08:16:42;101379.66;;;17.87;66.37
34961;BME280;30789;52.030;7.110;2023-05-08T08:19:08;101381.59;;;17.60;67.56
34961;BME280;30789;52.030;7.110;2023-05-08T08:21:35;101381.13;;;17.65;68.30
34961;BME280;30789;52.030;7.110;2023-05-08T08:24:02;101383.16;;;17.94;67.35
34961;BME280;30789;52.030;7.110;2023-05-08T08:26:29;101381.72;;;18.13;68.00
34961;BME280;30789;52.030;7.110;2023-05-08T08:28:56;101395.63;;;18.46;65.29
34961;BME280;30789;52.030;7.110;2023-05-08T08:31:23;101386.78;;;18.21;66.20
34961;BME280;30789;52.030;7.110;2023-05-08T08:33:49;101388.56;;;18.35;65.93
34961;BME280;30789;52.030;7.110;2023-05-08T08:36:16;101385.34;;;18.36;66.33
34961;BME280;30789;52.030;7.110;2023-05-08T08:38:42;101385.44;;;18.33;67.03
34961;BME280;30789;52.030;7.110;2023-05-08T08:41:12;101385.34;;;18.36;66.26
34961;BME280;30789;52.030;7.110;2023-05-08T08:43:38;101380.63;;;18.63;66.80
34961;BME280;30789;52.030;7.110;2023-05-08T08:46:10;101380.09;;;18.95;65.55
34961;BME280;30789;52.030;7.110;2023-05-08T08:48:42;101370.59;;;19.12;64.70
34961;BME280;30789;52.030;7.110;2023-05-08T08:51:13;101372.97;;;19.14;65.70
34961;BME280;30789;52.030;7.110;2023-05-08T08:53:45;101370.63;;;19.55;63.85
34961;BME280;30789;52.030;7.110;2023-05-08T08:56:15;101364.41;;;19.47;65.22
34961;BME280;30789;52.030;7.110;2023-05-08T08:58:46;101376.16;;;19.97;63.56
34961;BME280;30789;52.030;7.110;2023-05-08T09:01:18;101372.66;;;20.13;62.38
34961;BME280;30789;52.030;7.110;2023-05-08T09:03:45;101373.72;;;20.19;62.51
34961;BME280;30789;52.030;7.110;2023-05-08T09:06:12;101365.63;;;20.05;63.22
34961;BME280;30789;52.030;7.110;2023-05-08T09:08:39;101367.91;;;20.29;61.47
34961;BME280;30789;52.030;7.110;2023-05-08T09:11:06;101365.41;;;20.67;60.25
34961;BME280;30789;52.030;7.110;2023-05-08T09:13:33;101369.84;;;20.13;61.33
34961;BME280;30789;52.030;7.110;2023-05-08T09:15:59;101374.59;;;19.96;64.31
34961;BME280;30789;52.030;7.110;2023-05-08T09:18:27;101369.16;;;20.45;61.24
34961;BME280;30789;52.030;7.110;2023-05-08T09:20:54;101380.22;;;20.68;60.40
34961;BME280;30789;52.030;7.110;2023-05-08T09:23:20;101377.13;;;20.94;60.05
34961;BME280;30789;52.030;7.110;2023-05-08T09:25:47;101370.75;;;20.94;60.87
34961;BME280;30789;52.030;7.110;2023-05-08T09:28:15;101371.19;;;21.08;59.95
34961;BME280;30789;52.030;7.110;2023-05-08T09:30:50;101373.16;;;21.40;58.23
34961;BME280;30789;52.030;7.110;2023-05-08T09:33:17;101370.94;;;21.03;58.64
34961;BME280;30789;52.030;7.110;2023-05-08T09:35:45;101373.41;;;20.33;59.06
34961;BME280;30789;52.030;7.110;2023-05-08T09:38:32;101380.03;;;21.07;58.60
34961;BME280;30789;52.030;7.110;2023-05-08T09:41:05;101381.22;;;20.42;59.41
34961;BME280;30789;52.030;7.110;2023-05-08T09:43:32;101378.53;;;20.70;59.07
34961;BME280;30789;52.030;7.110;2023-05-08T09:46:18;101387.41;;;20.85;59.28
34961;BME280;30789;52.030;7.110;2023-05-08T09:48:46;101390.28;;;21.58;56.40
34961;BME280;30789;52.030;7.110;2023-05-08T09:51:14;101387.94;;;21.12;56.69
34961;BME280;30789;52.030;7.110;2023-05-08T09:53:40;101390.25;;;21.29;56.98
34961;BME280;30789;52.030;7.110;2023-05-08T09:56:07;101383.72;;;21.04;58.01
34961;BME280;30789;52.030;7.110;2023-05-08T09:58:37;101380.13;;;21.48;56.30
34961;BME280;30789;52.030;7.110;2023-05-08T10:01:04;101380.00;;;21.96;54.99
34961;BME280;30789;52.030;7.110;2023-05-08T10:03:46;101377.13;;;22.25;55.66
34961;BME280;30789;52.030;7.110;2023-05-08T10:06:15;101378.50;;;22.33;55.33
34961;BME280;30789;52.030;7.110;2023-05-08T10:08:41;101373.66;;;22.21;53.71
34961;BME280;30789;52.030;7.110;2023-05-08T10:11:14;101375.38;;;22.68;53.26
34961;BME280;30789;52.030;7.110;2023-05-08T10:13:42;101377.38;;;22.80;52.59
34961;BME280;30789;52.030;7.110;2023-05-08T10:16:11;101374.44;;;22.34;51.78
34961;BME280;30789;52.030;7.110;2023-05-08T10:18:42;101372.69;;;23.58;51.25
34961;BME280;30789;52.030;7.110;2023-05-08T10:21:13;101369.94;;;23.89;50.34
34961;BME280;30789;52.030;7.110;2023-05-08T10:23:41;101367.88;;;24.02;51.33
34961;BME280;30789;52.030;7.110;2023-05-08T10:26:11;101361.41;;;24.62;49.29
34961;BME280;30789;52.030;7.110;2023-05-08T10:28:42;101362.16;;;24.45;48.28
34961;BME280;30789;52.030;7.110;2023-05-08T10:31:11;101360.94;;;25.12;47.50
34961;BME280;30789;52.030;7.110;2023-05-08T10:33:39;101361.28;;;25.78;45.42
34961;BME280;30789;52.030;7.110;2023-05-08T10:36:07;101348.44;;;25.41;46.39
34961;BME280;30789;52.030;7.110;2023-05-08T10:38:36;101357.97;;;25.16;47.10
34961;BME280;30789;52.030;7.110;2023-05-08T10:41:03;101355.41;;;24.82;47.95
34961;BME280;30789;52.030;7.110;2023-05-08T10:43:31;101350.38;;;24.37;48.63
34961;BME280;30789;52.030;7.110;2023-05-08T10:46:01;101356.88;;;24.25;50.33
34961;BME280;30789;52.030;7.110;2023-05-08T10:48:33;101349.22;;;24.26;48.69
34961;BME280;30789;52.030;7.110;2023-05-08T10:51:08;101343.22;;;23.50;50.19
34961;BME280;30789;52.030;7.110;2023-05-08T10:53:39;101350.06;;;23.83;52.51
34961;BME280;30789;52.030;7.110;2023-05-08T10:56:09;101351.03;;;24.81;50.93
34961;BME280;30789;52.030;7.110;2023-05-08T10:58:36;101350.16;;;25.65;47.30
34961;BME280;30789;52.030;7.110;2023-05-08T11:01:15;101351.28;;;25.68;47.48
34961;BME280;30789;52.030;7.110;2023-05-08T11:03:43;101344.38;;;26.37;45.37
34961;BME280;30789;52.030;7.110;2023-05-08T11:06:10;101354.22;;;26.00;46.14
34961;BME280;30789;52.030;7.110;2023-05-08T11:08:49;101352.34;;;25.25;47.03
34961;BME280;30789;52.030;7.110;2023-05-08T11:11:27;101345.97;;;25.34;47.16
34961;BME280;30789;52.030;7.110;2023-05-08T11:13:58;101346.50;;;24.53;48.79
34961;BME280;30789;52.030;7.110;2023-05-08T11:17:03;101345.16;;;23.96;49.79
34961;BME280;30789;52.030;7.110;2023-05-08T11:19:30;101342.53;;;24.32;50.15
34961;BME280;30789;52.030;7.110;2023-05-08T11:22:14;101339.19;;;24.64;48.36
34961;BME280;30789;52.030;7.110;2023-05-08T11:24:48;101335.44;;;24.58;49.24
34961;BME280;30789;52.030;7.110;2023-05-08T11:27:16;101334.44;;;24.43;50.39
34961;BME280;30789;52.030;7.110;2023-05-08T11:29:42;101336.78;;;24.45;49.02
34961;BME280;30789;52.030;7.110;2023-05-08T11:32:09;101342.34;;;24.27;49.14
34961;BME280;30789;52.030;7.110;2023-05-08T11:34:45;101337.06;;;24.07;50.38
34961;BME280;30789;52.030;7.110;2023-05-08T11:37:17;101338.91;;;23.80;51.95
34961;BME280;30789;52.030;7.110;2023-05-08T11:39:44;101338.00;;;23.61;50.02
34961;BME280;30789;52.030;7.110;2023-05-08T11:42:34;101330.34;;;23.62;50.83
34961;BME280;30789;52.030;7.110;2023-05-08T11:45:06;101335.75;;;23.78;49.92
34961;BME280;30789;52.030;7.110;2023-05-08T11:47:36;101334.94;;;24.11;48.61
34961;BME280;30789;52.030;7.110;2023-05-08T11:50:04;101332.38;;;24.04;48.13
34961;BME280;30789;52.030;7.110;2023-05-08T11:52:32;101320.47;;;24.70;48.62
34961;BME280;30789;52.030;7.110;2023-05-08T11:55:02;101329.94;;;25.22;46.10
34961;BME280;30789;52.030;7.110;2023-05-08T11:57:30;101320.22;;;25.41;44.48
34961;BME280;30789;52.030;7.110;2023-05-08T12:00:03;101320.38;;;25.37;45.65
34961;BME280;30789;52.030;7.110;2023-05-08T12:02:36;101325.75;;;25.35;44.65
34961;BME280;30789;52.030;7.110;2023-05-08T12:05:04;101318.00;;;25.27;44.60
34961;BME280;30789;52.030;7.110;2023-05-08T12:07:31;101321.63;;;25.00;46.60
34961;BME280;30789;52.030;7.110;2023-05-08T12:09:59;101317.50;;;24.74;45.94
34961;BME280;30789;52.030;7.110;2023-05-08T12:12:35;101322.50;;;24.79;46.54
34961;BME280;30789;52.030;7.110;2023-05-08T12:15:06;101321.28;;;24.89;45.16
34961;BME280;30789;52.030;7.110;2023-05-08T12:17:33;101324.72;;;25.02;45.76
34961;BME280;30789;52.030;7.110;2023-05-08T12:20:09;101318.31;;;25.83;44.32
34961;BME280;30789;52.030;7.110;2023-05-08T12:22:37;101316.13;;;25.78;43.08
34961;BME280;30789;52.030;7.110;2023-05-08T12:25:04;101315.06;;;25.39;45.30
34961;BME280;30789;52.030;7.110;2023-05-08T12:27:31;101318.72;;;26.08;43.55
34961;BME280;30789;52.030;7.110;2023-05-08T12:29:58;101311.66;;;26.13;44.21
34961;BME280;30789;52.030;7.110;2023-05-08T12:32:26;101319.47;;;25.49;43.94
34961;BME280;30789;52.030;7.110;2023-05-08T12:34:52;101314.09;;;25.15;46.06
34961;BME280;30789;52.030;7.110;2023-05-08T12:37:23;101314.72;;;25.10;47.53
34961;BME280;30789;52.030;7.110;2023-05-08T12:39:50;101321.28;;;25.16;47.96
34961;BME280;30789;52.030;7.110;2023-05-08T12:42:16;101316.28;;;25.65;47.20
34961;BME280;30789;52.030;7.110;2023-05-08T12:44:49;101318.88;;;26.46;46.56
34961;BME280;30789;52.030;7.110;2023-05-08T12:47:17;101314.63;;;26.84;46.31
34961;BME280;30789;52.030;7.110;2023-05-08T12:49:46;101320.78;;;27.44;44.14
34961;BME280;30789;52.030;7.110;2023-05-08T12:52:14;101317.41;;;27.83;41.94
34961;BME280;30789;52.030;7.110;2023-05-08T12:54:46;101315.91;;;27.21;43.64
34961;BME280;30789;52.030;7.110;2023-05-08T12:57:15;101310.53;;;25.51;45.95
34961;BME280;30789;52.030;7.110;2023-05-08T12:59:43;101308.47;;;25.51;47.34
34961;BME280;30789;52.030;7.110;2023-05-08T13:02:12;101313.03;;;25.40;47.87
34961;BME280;30789;52.030;7.110;2023-05-08T13:04:39;101305.31;;;25.22;46.38